Time;durP1;ratioP1;P1;durP2;ratioP2;P2;SDS_P1;SDS_P2;PMS_P1;PMS_P2;Temp;Humidity;BMP_temperature;BMP_pressure;BME280_temperature;BME280_humidity;BME280_pressure;Samples;Min_cycle;Max_cycle;Signal;HPM_P1;HPM_P2
2022/03/13 00:00:54;;;;;;;5.65;3.53;;;11.60;99.90;;;;;;5073203;28;20016;-73
2022/03/13 00:03:22;;;;;;;3.83;3.30;;;11.60;99.90;;;;;;5073099;28;20029;-73
2022/03/13 00:05:50;;;;;;;5.60;2.85;;;11.60;99.90;;;;;;5073086;28;20040;-73
2022/03/13 00:08:32;;;;;;;3.67;3.03;;;11.60;99.90;;;;;;5055463;28;20048;-73
2022/03/13 00:11:05;;;;;;;2.90;2.35;;;11.60;99.90;;;;;;5072723;28;20053;-73
2022/03/13 00:13:34;;;;;;;7.63;2.67;;;11.50;99.90;;;;;;5072423;28;20526;-73
2022/03/13 00:16:09;;;;;;;3.97;2.55;;;11.50;99.90;;;;;;5072930;28;20029;-73
2022/03/13 00:18:36;;;;;;;3.20;2.65;;;11.50;99.90;;;;;;5073087;28;20033;-73
2022/03/13 00:21:03;;;;;;;4.05;2.60;;;11.50;99.90;;;;;;5072700;28;20536;-73
2022/03/13 00:23:31;;;;;;;3.20;2.05;;;11.50;99.90;;;;;;5073090;28;20033;-73
2022/03/13 00:25:57;;;;;;;2.95;2.35;;;11.40;99.90;;;;;;5072505;28;20114;-73
2022/03/13 00:28:22;;;;;;;4.97;3.00;;;11.40;99.90;;;;;;5072664;28;20036;-73
2022/03/13 00:30:49;;;;;;;3.90;2.88;;;11.30;99.90;;;;;;5054974;28;20507;-73
2022/03/13 00:33:15;;;;;;;5.00;2.85;;;11.30;99.90;;;;;;5055060;28;20036;-73
2022/03/13 00:35:40;;;;;;;3.58;2.67;;;11.20;99.90;;;;;;5072766;28;20056;-73
2022/03/13 00:38:07;;;;;;;3.65;2.58;;;11.20;99.90;;;;;;5072783;28;20024;-73
2022/03/13 00:40:33;;;;;;;5.03;2.95;;;11.20;99.90;;;;;;5072524;28;20024;-73
2022/03/13 00:43:01;;;;;;;3.63;2.83;;;11.20;99.90;;;;;;5072706;28;20109;-73
2022/03/13 00:45:28;;;;;;;3.85;2.30;;;11.30;99.90;;;;;;5072669;28;20536;-73
2022/03/13 00:47:54;;;;;;;4.35;2.72;;;11.20;99.90;;;;;;5072710;28;20023;-73
2022/03/13 00:50:20;;;;;;;3.53;2.40;;;11.20;99.90;;;;;;5072573;28;20119;-73
2022/03/13 00:52:46;;;;;;;3.53;2.78;;;11.20;99.90;;;;;;5054753;28;20032;-73
2022/03/13 00:55:12;;;;;;;4.22;2.80;;;11.20;99.90;;;;;;5072293;28;20028;-73
2022/03/13 00:57:38;;;;;;;4.43;2.83;;;11.20;99.90;;;;;;5054829;28;20031;-73
2022/03/13 01:00:05;;;;;;;4.82;2.25;;;11.20;99.90;;;;;;5072653;28;20029;-73
2022/03/13 01:02:33;;;;;;;4.38;3.03;;;11.20;99.90;;;;;;5072346;28;20045;-73
2022/03/13 01:04:58;;;;;;;4.22;2.90;;;11.30;99.90;;;;;;5072466;28;20527;-73
2022/03/13 01:07:25;;;;;;;5.10;3.08;;;11.20;99.90;;;;;;5072442;28;20374;-73
2022/03/13 01:09:51;;;;;;;4.38;3.20;;;11.20;99.90;;;;;;5072087;28;20435;-73
2022/03/13 01:12:16;;;;;;;6.40;3.08;;;11.20;99.90;;;;;;5072370;28;20029;-73
2022/03/13 01:14:45;;;;;;;4.15;2.67;;;11.20;99.90;;;;;;5072622;28;20063;-73
2022/03/13 01:17:11;;;;;;;6.70;3.00;;;11.20;99.90;;;;;;5054366;28;20051;-73
2022/03/13 01:19:37;;;;;;;4.25;3.15;;;11.10;99.90;;;;;;5072391;28;20017;-73
2022/03/13 01:22:03;;;;;;;4.15;3.08;;;11.20;99.90;;;;;;5071821;28;20481;-73
2022/03/13 01:24:43;;;;;;;5.57;3.72;;;11.20;99.90;;;;;;5073950;28;20032;-73
2022/03/13 01:27:14;;;;;;;4.72;3.10;;;11.20;99.90;;;;;;5076028;28;20115;-73
2022/03/13 01:29:40;;;;;;;5.40;3.40;;;11.20;99.90;;;;;;5076083;28;20049;-73
2022/03/13 01:32:09;;;;;;;4.15;3.20;;;11.20;99.90;;;;;;5058009;28;20028;-73
2022/03/13 01:34:38;;;;;;;6.07;3.38;;;11.20;99.90;;;;;;5076088;28;20420;-73
2022/03/13 01:37:11;;;;;;;5.63;3.58;;;11.20;99.90;;;;;;5056890;28;20039;-73
2022/03/13 01:39:37;;;;;;;14.60;4.40;;;11.30;99.90;;;;;;5037902;28;20385;-73
2022/03/13 01:42:04;;;;;;;4.65;3.65;;;11.30;99.90;;;;;;5055734;28;20121;-73
2022/03/13 01:44:30;;;;;;;5.65;3.75;;;11.20;99.90;;;;;;5055909;28;20095;-73
2022/03/13 01:46:55;;;;;;;7.47;3.63;;;11.20;99.90;;;;;;5055989;28;20111;-73
2022/03/13 01:49:23;;;;;;;8.55;3.90;;;11.20;99.90;;;;;;5037876;28;20048;-73
2022/03/13 01:51:48;;;;;;;5.90;3.92;;;11.20;99.90;;;;;;5055420;28;20131;-73
2022/03/13 01:54:14;;;;;;;9.07;3.90;;;11.20;99.90;;;;;;5055705;28;20036;-73
2022/03/13 01:56:41;;;;;;;5.63;4.07;;;11.20;99.90;;;;;;5055736;28;20470;-73
2022/03/13 01:59:09;;;;;;;5.47;3.95;;;11.30;99.90;;;;;;5037802;28;20149;-73
2022/03/13 02:01:37;;;;;;;5.30;3.85;;;11.30;99.90;;;;;;5055613;28;20457;-73
2022/03/13 02:04:04;;;;;;;5.78;4.07;;;11.30;99.90;;;;;;5055417;28;20074;-73
2022/03/13 02:06:29;;;;;;;5.57;4.05;;;11.20;99.90;;;;;;5055224;28;20454;-73
2022/03/13 02:08:56;;;;;;;8.75;5.10;;;11.30;99.90;;;;;;5055327;28;20111;-73
2022/03/13 02:11:24;;;;;;;8.52;4.13;;;11.30;99.90;;;;;;5068505;28;20036;-73
2022/03/13 02:13:52;;;;;;;5.70;3.65;;;11.20;99.90;;;;;;5075180;28;20028;-73
2022/03/13 02:16:19;;;;;;;6.75;4.32;;;11.20;99.90;;;;;;5075326;28;20086;-73
2022/03/13 02:18:50;;;;;;;6.53;3.80;;;11.20;99.90;;;;;;5075430;28;20401;-73
2022/03/13 02:21:17;;;;;;;7.90;4.40;;;11.20;99.90;;;;;;5057046;28;20037;-73
2022/03/13 02:23:43;;;;;;;5.82;3.83;;;11.30;99.90;;;;;;5075127;28;20024;-73
2022/03/13 02:26:09;;;;;;;6.68;4.38;;;11.30;99.90;;;;;;5074992;28;20048;-73
2022/03/13 02:28:37;;;;;;;6.30;4.13;;;11.20;99.90;;;;;;5074840;28;20484;-73
2022/03/13 02:31:16;;;;;;;6.03;4.22;;;11.20;99.90;;;;;;5075261;28;20465;-73
2022/03/13 02:33:41;;;;;;;5.68;4.50;;;11.20;99.90;;;;;;5074973;28;20591;-73
2022/03/13 02:36:31;;;;;;;6.55;4.05;;;11.10;99.90;;;;;;5073684;28;20017;-73
2022/03/13 02:39:01;;;;;;;5.15;3.90;;;11.10;99.90;;;;;;5074789;28;20029;-73
2022/03/13 02:41:27;;;;;;;7.47;4.55;;;11.20;99.90;;;;;;5074893;28;20039;-73
2022/03/13 02:43:53;;;;;;;6.65;4.32;;;11.10;99.90;;;;;;5074763;28;20044;-73
2022/03/13 02:46:21;;;;;;;8.50;5.15;;;11.10;99.90;;;;;;5074784;28;20033;-73
2022/03/13 02:48:49;;;;;;;6.95;4.95;;;11.10;99.90;;;;;;5074516;28;20062;-73
2022/03/13 02:51:15;;;;;;;6.38;4.30;;;11.10;99.90;;;;;;5074273;28;20108;-73
2022/03/13 02:53:41;;;;;;;5.43;4.18;;;11.10;99.90;;;;;;5074490;28;20028;-73
2022/03/13 02:56:07;;;;;;;4.93;3.95;;;11.10;99.90;;;;;;5074581;28;20382;-74
2022/03/13 02:58:33;;;;;;;7.40;4.75;;;11.10;99.90;;;;;;5074617;28;20039;-73
2022/03/13 03:00:59;;;;;;;6.75;4.50;;;11.10;99.90;;;;;;5074493;28;20097;-73
2022/03/13 03:03:26;;;;;;;7.53;5.10;;;11.10;99.90;;;;;;5074434;28;20028;-73
2022/03/13 03:05:52;;;;;;;6.82;4.95;;;11.00;99.90;;;;;;5074109;28;20035;-73
2022/03/13 03:08:19;;;;;;;6.97;4.75;;;11.00;99.90;;;;;;5074444;28;20028;-73
2022/03/13 03:10:45;;;;;;;7.57;4.93;;;11.00;99.90;;;;;;5074217;28;20040;-73
2022/03/13 03:13:13;;;;;;;8.32;5.45;;;11.00;99.90;;;;;;5074389;28;20048;-73
2022/03/13 03:15:40;;;;;;;8.15;5.43;;;11.10;99.90;;;;;;5074334;28;20606;-73
2022/03/13 03:18:09;;;;;;;8.23;4.90;;;11.00;99.90;;;;;;5073752;28;20029;-73
2022/03/13 03:20:35;;;;;;;9.25;5.13;;;11.00;99.90;;;;;;5073907;28;20024;-73
2022/03/13 03:23:02;;;;;;;7.82;5.50;;;10.90;99.90;;;;;;5074137;28;20033;-73
2022/03/13 03:25:28;;;;;;;11.30;5.00;;;10.90;99.90;;;;;;5055997;28;20021;-73
2022/03/13 03:27:57;;;;;;;16.23;5.45;;;11.00;99.90;;;;;;5073658;28;20465;-73
2022/03/13 03:30:25;;;;;;;9.43;5.28;;;11.00;99.90;;;;;;5073788;28;20091;-73
2022/03/13 03:32:52;;;;;;;8.25;5.00;;;10.90;99.90;;;;;;5073516;28;20025;-73
2022/03/13 03:35:19;;;;;;;7.28;5.00;;;10.90;99.90;;;;;;5073794;28;20029;-73
2022/03/13 03:37:51;;;;;;;6.70;5.07;;;11.00;99.90;;;;;;5073848;28;20044;-73
2022/03/13 03:40:21;;;;;;;9.18;5.72;;;10.90;99.90;;;;;;5073523;28;20480;-73
2022/03/13 03:42:47;;;;;;;9.02;5.30;;;10.90;99.90;;;;;;5073537;28;20500;-73
2022/03/13 03:45:16;;;;;;;6.65;5.05;;;10.90;99.90;;;;;;5073532;28;20040;-73
2022/03/13 03:47:43;;;;;;;8.35;5.07;;;10.90;99.90;;;;;;5073133;28;20426;-73
2022/03/13 03:50:13;;;;;;;8.07;5.57;;;10.80;99.90;;;;;;5073383;28;20094;-74
2022/03/13 03:52:41;;;;;;;7.15;5.32;;;10.90;99.90;;;;;;5073527;28;20029;-73
2022/03/13 03:55:07;;;;;;;9.10;5.63;;;10.90;99.90;;;;;;5055471;28;20039;-73
2022/03/13 03:57:33;;;;;;;9.77;5.63;;;10.80;99.90;;;;;;5073525;28;20037;-73
2022/03/13 03:59:59;;;;;;;10.07;5.70;;;10.80;99.90;;;;;;5055398;28;20040;-73
2022/03/13 04:02:25;;;;;;;7.07;5.43;;;10.90;99.90;;;;;;5055226;28;20020;-73
2022/03/13 04:04:50;;;;;;;9.50;5.47;;;10.90;99.90;;;;;;5073325;28;20051;-73
2022/03/13 04:07:18;;;;;;;8.05;4.93;;;10.90;99.90;;;;;;5073183;28;20469;-73
2022/03/13 04:09:43;;;;;;;10.02;5.93;;;10.90;99.90;;;;;;5073290;28;20041;-73
2022/03/13 04:12:10;;;;;;;11.02;6.03;;;10.80;99.90;;;;;;5055095;28;20030;-73
2022/03/13 04:14:35;;;;;;;9.23;5.60;;;10.80;99.90;;;;;;5073044;28;20036;-73
2022/03/13 04:17:02;;;;;;;10.30;5.50;;;10.80;99.90;;;;;;5072709;28;20020;-73
2022/03/13 04:19:28;;;;;;;8.43;5.72;;;11.00;99.90;;;;;;5073214;28;20029;-73
2022/03/13 04:21:55;;;;;;;8.27;5.80;;;10.90;99.90;;;;;;5072576;28;20060;-73
2022/03/13 04:24:22;;;;;;;8.90;5.90;;;10.80;99.90;;;;;;5055210;28;20048;-73
2022/03/13 04:26:48;;;;;;;8.85;6.25;;;10.80;99.90;;;;;;5072585;28;20103;-73
2022/03/13 04:29:16;;;;;;;7.57;5.93;;;10.80;99.90;;;;;;5072685;28;20480;-73
2022/03/13 04:31:43;;;;;;;9.57;6.03;;;10.70;99.90;;;;;;5072683;28;20473;-73
2022/03/13 04:34:09;;;;;;;8.00;6.00;;;10.70;99.90;;;;;;5054958;28;20028;-73
2022/03/13 04:36:37;;;;;;;9.38;6.15;;;10.70;99.90;;;;;;5072927;28;20028;-73
2022/03/13 04:39:08;;;;;;;8.93;5.95;;;10.70;99.90;;;;;;5072815;28;20037;-73
2022/03/13 04:41:34;;;;;;;10.05;5.82;;;10.60;99.90;;;;;;5072594;28;20032;-74
2022/03/13 04:44:00;;;;;;;14.25;6.13;;;10.60;99.90;;;;;;5072827;28;20079;-73
2022/03/13 04:46:27;;;;;;;10.45;5.70;;;10.60;99.90;;;;;;5072503;28;20024;-73
2022/03/13 04:48:53;;;;;;;7.10;5.07;;;10.60;99.90;;;;;;5072579;28;20417;-73
2022/03/13 04:51:22;;;;;;;11.18;5.60;;;10.50;99.90;;;;;;5072495;28;20033;-73
2022/03/13 04:53:47;;;;;;;7.18;4.82;;;10.50;99.90;;;;;;5072583;28;20609;-73
2022/03/13 04:56:13;;;;;;;9.35;5.03;;;10.50;99.90;;;;;;5072648;28;20029;-73
2022/03/13 04:58:39;;;;;;;7.60;5.40;;;10.50;99.90;;;;;;5073085;28;20021;-73
2022/03/13 05:01:05;;;;;;;7.13;5.03;;;10.50;99.90;;;;;;5058536;28;20396;-73
2022/03/13 05:03:33;;;;;;;10.23;5.63;;;10.40;99.90;;;;;;5041995;28;20024;-73
2022/03/13 05:06:05;;;;;;;10.13;5.53;;;10.30;99.90;;;;;;5076475;28;20021;-73
2022/03/13 05:08:36;;;;;;;10.52;6.35;;;10.40;99.90;;;;;;5076614;28;20558;-73
2022/03/13 05:11:05;;;;;;;10.63;5.60;;;10.30;99.90;;;;;;5076565;28;20392;-73
2022/03/13 05:13:31;;;;;;;10.98;6.18;;;10.30;99.90;;;;;;5076457;28;20028;-73
2022/03/13 05:15:57;;;;;;;8.88;5.47;;;10.30;99.90;;;;;;5076155;28;20032;-73
2022/03/13 05:18:23;;;;;;;8.13;6.65;;;10.20;99.90;;;;;;5076409;28;20027;-73
2022/03/13 05:20:48;;;;;;;10.85;6.95;;;10.20;99.90;;;;;;5076228;28;20032;-74
2022/03/13 05:23:15;;;;;;;12.80;6.85;;;10.20;99.90;;;;;;5076188;28;20036;-73
2022/03/13 05:25:41;;;;;;;11.50;7.38;;;10.20;99.90;;;;;;5076377;28;20021;-73
2022/03/13 05:28:08;;;;;;;9.65;7.00;;;10.20;99.90;;;;;;5076004;28;20033;-73
2022/03/13 05:30:35;;;;;;;14.20;8.27;;;10.10;99.90;;;;;;5075916;28;20507;-73
2022/03/13 05:33:01;;;;;;;9.73;7.22;;;10.10;99.90;;;;;;5076063;28;20016;-73
2022/03/13 05:35:27;;;;;;;11.05;7.82;;;10.10;99.90;;;;;;5076123;28;20472;-73
2022/03/13 05:37:53;;;;;;;10.60;7.65;;;10.10;99.90;;;;;;5075904;28;20102;-74
2022/03/13 05:40:20;;;;;;;12.00;8.38;;;10.10;99.90;;;;;;5076108;28;20033;-73
2022/03/13 05:42:49;;;;;;;10.15;7.82;;;10.00;99.90;;;;;;5075988;28;20488;-73
2022/03/13 05:45:16;;;;;;;12.48;8.25;;;10.00;99.90;;;;;;5057783;28;20578;-73
2022/03/13 05:47:48;;;;;;;12.18;7.97;;;10.00;99.90;;;;;;5075969;28;20036;-73
2022/03/13 05:50:15;;;;;;;13.05;8.02;;;9.90;99.90;;;;;;5057844;28;20119;-73
2022/03/13 05:52:45;;;;;;;16.05;9.20;;;9.90;99.90;;;;;;5075605;28;20025;-73
2022/03/13 05:55:11;;;;;;;11.43;7.80;;;9.90;99.90;;;;;;5075728;28;20029;-73
2022/03/13 05:57:37;;;;;;;11.05;7.93;;;9.80;99.90;;;;;;5075865;28;20032;-73
2022/03/13 06:00:08;;;;;;;10.57;7.80;;;9.70;99.90;;;;;;5075724;28;20027;-73
2022/03/13 06:02:41;;;;;;;12.52;8.40;;;9.70;99.90;;;;;;5075492;28;20488;-73
2022/03/13 06:05:09;;;;;;;11.85;8.77;;;9.70;99.90;;;;;;5075443;28;20025;-73
2022/03/13 06:07:36;;;;;;;15.10;8.27;;;9.70;99.90;;;;;;5075515;28;20051;-73
2022/03/13 06:10:03;;;;;;;12.85;8.73;;;9.70;99.90;;;;;;5074554;28;20128;-74
2022/03/13 06:12:33;;;;;;;15.77;10.07;;;9.80;99.90;;;;;;5074681;28;20044;-73
2022/03/13 06:15:00;;;;;;;15.45;8.40;;;9.80;99.90;;;;;;5075333;28;20028;-73
2022/03/13 06:17:26;;;;;;;15.60;9.85;;;9.80;99.90;;;;;;5075369;28;20408;-73
2022/03/13 06:19:55;;;;;;;14.10;9.80;;;9.80;99.90;;;;;;5057535;28;20452;-73
2022/03/13 06:22:21;;;;;;;19.45;11.32;;;9.80;99.90;;;;;;5074969;28;20027;-73
2022/03/13 06:24:47;;;;;;;18.52;10.85;;;9.80;99.90;;;;;;5075163;28;20033;-73
2022/03/13 06:27:14;;;;;;;12.82;8.82;;;9.80;99.90;;;;;;5074671;28;20035;-73
2022/03/13 06:29:41;;;;;;;16.63;10.80;;;9.80;99.90;;;;;;5074989;28;20057;-73
2022/03/13 06:32:07;;;;;;;17.50;10.57;;;9.80;99.90;;;;;;5074996;28;20039;-73
2022/03/13 06:34:34;;;;;;;14.90;9.98;;;9.90;99.90;;;;;;5074986;28;20032;-73
2022/03/13 06:37:00;;;;;;;13.90;10.05;;;10.00;99.90;;;;;;5075051;28;20032;-73
2022/03/13 06:39:26;;;;;;;17.95;10.63;;;10.00;99.90;;;;;;5074823;28;20029;-73
2022/03/13 06:41:52;;;;;;;18.42;10.65;;;9.90;99.90;;;;;;5074689;28;20039;-73
2022/03/13 06:44:20;;;;;;;17.33;11.40;;;9.90;99.90;;;;;;5074750;28;20033;-73
2022/03/13 06:46:46;;;;;;;20.05;11.05;;;9.90;99.90;;;;;;5074692;28;20041;-73
2022/03/13 06:49:12;;;;;;;16.42;11.30;;;10.00;99.90;;;;;;5074602;28;20066;-73
2022/03/13 06:51:38;;;;;;;17.38;11.68;;;9.90;99.90;;;;;;5074715;28;20051;-73
2022/03/13 06:54:11;;;;;;;17.55;11.55;;;9.90;99.90;;;;;;5074399;28;20032;-73
2022/03/13 06:56:40;;;;;;;16.38;11.05;;;9.90;99.90;;;;;;5074306;28;20035;-73
2022/03/13 06:59:06;;;;;;;19.90;12.18;;;9.90;99.90;;;;;;5074507;28;20241;-73
2022/03/13 07:01:38;;;;;;;19.48;11.88;;;9.90;99.90;;;;;;5074526;28;20100;-73
2022/03/13 07:04:05;;;;;;;19.38;12.88;;;9.80;99.90;;;;;;5074381;28;20028;-73
2022/03/13 07:06:32;;;;;;;19.98;12.13;;;9.80;99.90;;;;;;5074229;28;20020;-73
2022/03/13 07:08:59;;;;;;;18.05;12.15;;;9.70;99.90;;;;;;5074360;28;20025;-73
2022/03/13 07:11:30;;;;;;;16.83;12.85;;;9.80;99.90;;;;;;5073822;28;20032;-74
2022/03/13 07:13:56;;;;;;;17.85;11.73;;;9.70;99.90;;;;;;5074137;28;20032;-73
2022/03/13 07:16:22;;;;;;;16.38;11.93;;;9.70;99.90;;;;;;5074086;28;20020;-74
2022/03/13 07:18:48;;;;;;;21.63;12.68;;;9.80;99.90;;;;;;5074200;28;20058;-73
2022/03/13 07:21:14;;;;;;;17.60;12.48;;;9.70;99.90;;;;;;5073634;28;20028;-73
2022/03/13 07:23:39;;;;;;;19.02;12.25;;;9.70;99.90;;;;;;5073824;28;20114;-73
2022/03/13 07:26:05;;;;;;;18.08;12.85;;;9.80;99.90;;;;;;5073428;28;20020;-73
2022/03/13 07:28:31;;;;;;;19.80;13.27;;;9.80;99.90;;;;;;5073853;28;20029;-73
2022/03/13 07:30:57;;;;;;;17.67;12.50;;;9.90;99.90;;;;;;5073768;28;20162;-73
2022/03/13 07:33:23;;;;;;;19.75;13.60;;;9.90;99.90;;;;;;5073944;28;20389;-74
2022/03/13 07:35:49;;;;;;;17.45;12.70;;;10.00;99.90;;;;;;5073724;28;20074;-73
2022/03/13 07:38:15;;;;;;;23.73;14.77;;;10.00;99.90;;;;;;5055976;28;20029;-74
2022/03/13 07:40:42;;;;;;;27.13;14.75;;;10.10;99.90;;;;;;5073271;28;20078;-73
2022/03/13 07:43:09;;;;;;;21.67;14.65;;;10.20;99.90;;;;;;5073617;28;20062;-74
2022/03/13 07:45:35;;;;;;;24.42;16.15;;;10.30;99.90;;;;;;5073672;28;20039;-74
2022/03/13 07:48:00;;;;;;;26.42;16.00;;;10.30;99.90;;;;;;5073578;28;20025;-73
2022/03/13 07:50:28;;;;;;;24.20;16.33;;;10.30;99.90;;;;;;5073338;28;20135;-73
2022/03/13 07:52:54;;;;;;;25.17;16.48;;;10.50;99.90;;;;;;5069268;28;20024;-74
2022/03/13 07:55:21;;;;;;;25.92;16.67;;;10.60;99.90;;;;;;5077213;28;20031;-74
2022/03/13 07:57:48;;;;;;;31.25;16.65;;;10.80;99.90;;;;;;5093873;28;20115;-74
2022/03/13 08:00:17;;;;;;;30.98;18.23;;;10.80;99.90;;;;;;5093391;28;20069;-73
2022/03/13 08:02:46;;;;;;;25.25;16.27;;;11.00;99.90;;;;;;5073743;28;20151;-74
2022/03/13 08:05:13;;;;;;;23.50;16.13;;;11.10;99.90;;;;;;5052678;28;20032;-73
2022/03/13 08:07:39;;;;;;;25.20;15.93;;;11.00;99.90;;;;;;5052489;28;20358;-73
2022/03/13 08:10:05;;;;;;;25.33;16.15;;;11.20;99.90;;;;;;5051819;28;20051;-73
2022/03/13 08:12:31;;;;;;;27.05;15.52;;;11.30;99.90;;;;;;5051732;28;20025;-73
2022/03/13 08:14:57;;;;;;;24.45;15.68;;;11.30;99.90;;;;;;5053144;28;20039;-73
2022/03/13 08:17:23;;;;;;;23.10;15.55;;;11.30;99.90;;;;;;5052777;28;20029;-74
2022/03/13 08:19:49;;;;;;;25.13;15.48;;;11.50;99.90;;;;;;5052775;28;20078;-73
2022/03/13 08:22:17;;;;;;;20.10;13.93;;;11.70;99.90;;;;;;5064859;28;20032;-73
2022/03/13 08:24:43;;;;;;;21.85;14.43;;;11.70;99.90;;;;;;5072453;28;20031;-74
2022/03/13 08:27:09;;;;;;;26.02;15.07;;;11.80;99.90;;;;;;5072289;28;20025;-73
2022/03/13 08:29:34;;;;;;;21.70;14.38;;;11.80;99.90;;;;;;5054898;28;20033;-74
2022/03/13 08:32:00;;;;;;;21.67;13.40;;;11.90;99.90;;;;;;5072636;28;20028;-73
2022/03/13 08:34:30;;;;;;;23.77;13.82;;;12.00;99.90;;;;;;5071745;28;20054;-73
2022/03/13 08:36:56;;;;;;;19.50;13.77;;;12.10;99.90;;;;;;5072780;28;20035;-73
2022/03/13 08:39:22;;;;;;;26.27;14.38;;;12.10;99.90;;;;;;5072551;28;20036;-73
2022/03/13 08:41:48;;;;;;;26.38;15.35;;;12.20;99.90;;;;;;5072567;28;20115;-73
2022/03/13 08:44:13;;;;;;;21.75;14.30;;;12.40;99.90;;;;;;5072603;28;20119;-74
2022/03/13 08:46:39;;;;;;;20.05;12.40;;;12.40;99.90;;;;;;5054688;28;20028;-73
2022/03/13 08:49:07;;;;;;;19.67;13.70;;;12.30;99.90;;;;;;5072656;28;20033;-73
2022/03/13 08:51:32;;;;;;;19.10;13.43;;;12.40;99.90;;;;;;5054148;28;20036;-73
2022/03/13 08:53:58;;;;;;;22.15;13.95;;;12.30;99.90;;;;;;5072454;28;20042;-73
2022/03/13 08:56:25;;;;;;;19.65;12.77;;;12.50;99.90;;;;;;5072491;28;20028;-74
2022/03/13 08:58:51;;;;;;;22.50;13.82;;;12.50;99.90;;;;;;5072731;28;20040;-76
2022/03/13 09:01:17;;;;;;;22.52;14.23;;;12.40;99.90;;;;;;5072563;28;20032;-74
2022/03/13 09:03:43;;;;;;;21.85;13.73;;;12.70;99.90;;;;;;5054713;28;20039;-74
2022/03/13 09:06:11;;;;;;;19.45;13.80;;;12.90;99.90;;;;;;5072486;28;20029;-78
2022/03/13 09:08:37;;;;;;;22.40;13.70;;;13.10;99.90;;;;;;5072366;28;20107;-74
2022/03/13 09:11:02;;;;;;;17.77;12.35;;;12.90;99.90;;;;;;5072097;28;20147;-74
2022/03/13 09:13:28;;;;;;;20.73;12.73;;;13.00;99.90;;;;;;5072240;28;20082;-74
2022/03/13 09:15:54;;;;;;;20.42;12.10;;;13.10;99.90;;;;;;5072471;28;20037;-74
2022/03/13 09:18:20;;;;;;;23.50;12.70;;;13.20;99.90;;;;;;5072249;28;20138;-74
2022/03/13 09:20:45;;;;;;;19.52;12.35;;;13.40;99.90;;;;;;5071263;28;20017;-74
2022/03/13 09:23:11;;;;;;;17.38;11.85;;;13.40;99.90;;;;;;5071540;28;20040;-74
2022/03/13 09:25:37;;;;;;;14.18;10.02;;;13.30;99.90;;;;;;5071785;28;20078;-74
2022/03/13 09:28:04;;;;;;;15.60;10.93;;;13.20;99.90;;;;;;5053941;28;20029;-74
2022/03/13 09:30:30;;;;;;;47.67;12.20;;;13.20;99.90;;;;;;5071291;28;20369;-74
2022/03/13 09:32:56;;;;;;;15.23;10.27;;;13.40;99.90;;;;;;5071887;28;20082;-74
2022/03/13 09:35:22;;;;;;;16.10;10.50;;;13.50;99.90;;;;;;5037113;28;20032;-74
2022/03/13 09:37:49;;;;;;;13.73;10.10;;;13.50;99.90;;;;;;5051659;28;20071;-74
2022/03/13 09:40:17;;;;;;;15.20;10.40;;;13.50;99.90;;;;;;5065058;28;20099;-74
2022/03/13 09:42:44;;;;;;;14.88;8.85;;;13.60;99.90;;;;;;5071488;28;20554;-74
2022/03/13 09:45:11;;;;;;;12.70;9.52;;;13.80;99.90;;;;;;5072440;28;20469;-74
2022/03/13 09:47:37;;;;;;;12.02;8.63;;;13.90;99.90;;;;;;5075501;28;20024;-74
2022/03/13 09:50:06;;;;;;;15.15;9.57;;;13.90;99.60;;;;;;5075071;28;20157;-74
2022/03/13 09:52:33;;;;;;;13.45;8.68;;;13.90;99.80;;;;;;5074797;28;20093;-74
2022/03/13 09:55:00;;;;;;;13.73;9.52;;;13.80;99.90;;;;;;5075670;28;20484;-74
2022/03/13 09:57:25;;;;;;;12.68;8.38;;;14.00;99.90;;;;;;5075640;28;20050;-74
2022/03/13 09:59:51;;;;;;;13.60;7.72;;;14.20;98.90;;;;;;5075239;28;20111;-74
2022/03/13 10:02:17;;;;;;;16.52;6.90;;;14.10;98.80;;;;;;5075331;28;20020;-74
2022/03/13 10:04:43;;;;;;;9.93;7.28;;;14.20;98.60;;;;;;5074853;28;20033;-74
2022/03/13 10:07:15;;;;;;;10.13;7.38;;;14.10;98.60;;;;;;5057278;28;20031;-74
2022/03/13 10:09:43;;;;;;;11.75;7.20;;;14.40;98.90;;;;;;5075113;28;20186;-74
2022/03/13 10:12:19;;;;;;;12.25;7.00;;;14.70;98.00;;;;;;5074920;28;20464;-74
2022/03/13 10:15:14;;;;;;;9.25;6.97;;;14.50;97.70;;;;;;5074848;28;20033;-75
2022/03/13 10:17:41;;;;;;;10.15;7.40;;;14.80;97.90;;;;;;5053595;28;20127;-75
2022/03/13 10:20:25;;;;;;;11.38;7.15;;;14.80;97.70;;;;;;5072750;28;20032;-74
2022/03/13 10:23:05;;;;;;;13.05;7.78;;;14.90;97.50;;;;;;5073253;28;20032;-73
2022/03/13 10:25:39;;;;;;;9.63;6.85;;;14.80;97.30;;;;;;5039994;28;20746;-73
2022/03/13 10:28:21;;;;;;;10.15;6.45;;;14.60;97.40;;;;;;5074811;28;20028;-73
2022/03/13 10:30:52;;;;;;;9.48;6.25;;;14.50;97.30;;;;;;5074794;28;20047;-73
2022/03/13 10:33:18;;;;;;;10.32;6.93;;;14.60;97.40;;;;;;5074781;28;20036;-73
2022/03/13 10:35:44;;;;;;;10.77;6.38;;;14.60;97.20;;;;;;5056556;28;20039;-73
2022/03/13 10:38:19;;;;;;;10.23;6.70;;;14.90;97.20;;;;;;5074172;28;20299;-72
2022/03/13 10:40:50;;;;;;;9.18;6.35;;;14.90;96.80;;;;;;5074554;28;20471;-72
2022/03/13 10:43:20;;;;;;;14.38;5.82;;;15.10;96.70;;;;;;5056783;28;20028;-74
2022/03/13 10:45:53;;;;;;;8.68;5.57;;;15.30;96.50;;;;;;5074578;28;20055;-73
2022/03/13 10:48:28;;;;;;;9.35;5.90;;;15.40;95.70;;;;;;5074267;28;20107;-73
2022/03/13 10:50:57;;;;;;;7.68;5.38;;;15.40;96.30;;;;;;5056180;28;20134;-73
2022/03/13 10:53:24;;;;;;;8.88;5.32;;;15.50;96.00;;;;;;5074649;28;20074;-73
2022/03/13 10:56:12;;;;;;;11.77;5.30;;;15.90;95.50;;;;;;5074205;28;20043;-75
2022/03/13 10:58:45;;;;;;;8.25;5.03;;;16.00;95.40;;;;;;5073707;28;20032;-73
2022/03/13 11:01:13;;;;;;;8.40;5.05;;;16.00;95.10;;;;;;5073939;28;20473;-73
2022/03/13 11:04:02;;;;;;;10.68;5.38;;;15.70;95.30;;;;;;5073926;28;20071;-73
2022/03/13 11:06:29;;;;;;;7.97;5.07;;;15.50;95.30;;;;;;5073973;28;20028;-73
2022/03/13 11:08:55;;;;;;;7.70;5.18;;;15.50;95.30;;;;;;5056178;28;20546;-74
2022/03/13 11:11:22;;;;;;;6.22;4.55;;;15.60;95.20;;;;;;5073671;28;20040;-74
2022/03/13 11:13:54;;;;;;;8.20;4.55;;;15.90;95.00;;;;;;5055953;28;20020;-74
2022/03/13 11:16:28;;;;;;;6.20;4.32;;;16.20;95.00;;;;;;5074327;28;20094;-74
2022/03/13 11:19:01;;;;;;;6.47;4.13;;;16.40;94.20;;;;;;5071698;28;20077;-74
2022/03/13 11:21:27;;;;;;;7.85;4.00;;;16.60;94.10;;;;;;5073571;28;20048;-74
2022/03/13 11:23:53;;;;;;;5.85;4.03;;;16.50;93.80;;;;;;5073733;28;20091;-74
2022/03/13 11:26:23;;;;;;;8.00;4.53;;;16.60;93.80;;;;;;5055553;28;20036;-74
2022/03/13 11:28:49;;;;;;;5.85;3.92;;;16.70;93.50;;;;;;5072703;28;20031;-73
2022/03/13 11:31:35;;;;;;;5.95;4.10;;;16.90;93.40;;;;;;5072711;28;20036;-74
2022/03/13 11:34:13;;;;;;;6.80;4.50;;;17.40;93.00;;;;;;5054886;28;20055;-74
2022/03/13 11:36:44;;;;;;;8.70;4.32;;;17.90;93.10;;;;;;5061010;28;20025;-74
2022/03/13 11:39:13;;;;;;;9.25;3.90;;;18.20;92.50;;;;;;5069098;28;20032;-74
2022/03/13 11:41:43;;;;;;;6.03;3.72;;;18.00;92.10;;;;;;5069617;28;20024;-74
2022/03/13 11:44:23;;;;;;;9.13;4.55;;;18.00;92.00;;;;;;5053345;28;20438;-74
2022/03/13 11:46:54;;;;;;;5.63;3.85;;;18.30;91.80;;;;;;5052801;28;20083;-76
2022/03/13 11:49:26;;;;;;;6.20;3.67;;;18.20;91.60;;;;;;5073087;28;20041;-74
2022/03/13 11:52:10;;;;;;;5.47;4.07;;;18.80;91.50;;;;;;5072595;28;20048;-74
2022/03/13 11:54:59;;;;;;;6.60;3.60;;;19.20;91.30;;;;;;5051602;28;20040;-74
2022/03/13 11:57:44;;;;;;;5.63;3.83;;;19.40;90.90;;;;;;5018790;28;20059;-79
2022/03/13 12:00:13;;;;;;;4.78;2.90;;;19.60;90.30;;;;;;5053068;28;20036;-74
2022/03/13 12:02:46;;;;;;;5.32;3.63;;;19.70;89.80;;;;;;5069541;28;20054;-71
2022/03/13 12:05:31;;;;;;;7.32;3.70;;;20.10;90.20;;;;;;5071631;28;20115;-71
2022/03/13 12:08:05;;;;;;;8.43;3.80;;;20.40;89.90;;;;;;5054306;28;20028;-71
2022/03/13 12:10:41;;;;;;;5.47;2.72;;;20.20;89.00;;;;;;5072564;28;20039;-71
2022/03/13 12:13:15;;;;;;;6.50;3.28;;;19.60;88.60;;;;;;5055033;28;20028;-71
2022/03/13 12:15:42;;;;;;;7.00;3.80;;;19.70;90.10;;;;;;5072444;28;20115;-71
2022/03/13 12:18:24;;;;;;;4.72;3.53;;;19.40;88.40;;;;;;5072574;28;20036;-71
2022/03/13 12:20:51;;;;;;;5.35;3.10;;;19.20;90.10;;;;;;5072470;28;20036;-71
2022/03/13 12:23:27;;;;;;;5.80;3.92;;;19.00;90.30;;;;;;5072934;28;20032;-71
2022/03/13 12:26:11;;;;;;;7.40;3.65;;;18.90;89.40;;;;;;5072377;28;20554;-71
2022/03/13 12:28:37;;;;;;;5.15;3.47;;;19.00;89.40;;;;;;5072627;28;20062;-71
2022/03/13 12:31:03;;;;;;;3.30;2.70;;;18.90;89.80;;;;;;5072067;28;20527;-71
2022/03/13 12:33:31;;;;;;;4.97;2.55;;;19.00;88.80;;;;;;5072774;28;20104;-71
2022/03/13 12:35:59;;;;;;;4.43;2.28;;;19.30;88.10;;;;;;5072941;28;20036;-71
2022/03/13 12:38:30;;;;;;;2.78;2.45;;;19.00;86.70;;;;;;5071721;28;20036;-71
2022/03/13 12:40:59;;;;;;;5.63;2.33;;;18.50;88.10;;;;;;5071802;28;20036;-71
2022/03/13 12:43:44;;;;;;;4.00;2.60;;;18.70;88.10;;;;;;5071531;28;20016;-71
2022/03/13 12:46:12;;;;;;;3.72;2.90;;;19.00;88.60;;;;;;5072060;28;20033;-71